Time;durP1;ratioP1;P1;durP2;ratioP2;P2;SDS_P1;SDS_P2;PMS_P1;PMS_P2;Temp;Humidity;BMP_temperature;BMP_pressure;BME280_temperature;BME280_humidity;BME280_pressure;Samples;Min_cycle;Max_cycle;Signal;HPM_P1;HPM_P2
2021/12/23 00:00:28;;;;;;;62.10;31.90;;;;;;;-3.83;83.25;101415.77;87771;1287;82512;-64
2021/12/23 00:02:47;;;;;;;65.10;32.70;;;;;;;-3.82;83.19;101404.09;87768;1285;98143;-67
2021/12/23 00:04:56;;;;;;;61.00;30.90;;;;;;;-3.82;83.18;101399.33;87800;1285;87824;-63
2021/12/23 00:07:05;;;;;;;56.20;28.50;;;;;;;-3.78;83.38;101394.89;87763;1287;93593;-63
2021/12/23 00:09:15;;;;;;;58.60;30.20;;;;;;;-3.70;83.50;101392.60;87762;1287;76966;-62
2021/12/23 00:11:28;;;;;;;52.90;29.50;;;;;;;-3.62;83.44;101390.45;87920;1282;79374;-62
2021/12/23 00:13:48;;;;;;;58.40;30.10;;;;;;;-3.61;83.44;101387.21;87859;1281;97525;-62
2021/12/23 00:16:16;;;;;;;60.50;30.10;;;;;;;-3.60;83.49;101386.83;87758;1285;88825;-63
2021/12/23 00:18:42;;;;;;;58.70;30.00;;;;;;;-3.56;83.20;101380.96;87771;1283;93461;-63
2021/12/23 00:23:28;;;;;;;58.50;29.70;;;;;;;-3.57;83.07;101373.98;87778;1284;81338;-67
2021/12/23 00:25:38;;;;;;;60.80;30.00;;;;;;;-3.61;83.13;101368.39;87861;1281;99452;-62
2021/12/23 00:27:48;;;;;;;57.80;28.90;;;;;;;-3.63;83.28;101365.66;87765;1284;88575;-65
2021/12/23 00:29:58;;;;;;;61.00;28.40;;;;;;;-3.67;82.96;101363.42;87778;1273;93458;-62
2021/12/23 00:32:12;;;;;;;60.80;30.20;;;;;;;-3.69;83.09;101365.61;87779;1285;82277;-63
2021/12/23 00:34:21;;;;;;;66.30;31.70;;;;;;;-3.70;82.99;101362.13;87872;1282;80642;-62
2021/12/23 00:36:35;;;;;;;66.10;31.30;;;;;;;-3.70;83.08;101361.42;87771;1281;96716;-62
2021/12/23 00:38:50;;;;;;;60.20;29.60;;;;;;;-3.65;83.02;101363.15;87882;1282;88314;-62
2021/12/23 00:41:01;;;;;;;62.30;29.30;;;;;;;-3.64;83.20;101361.48;87793;1275;92568;-62
2021/12/23 00:43:13;;;;;;;66.80;31.00;;;;;;;-3.58;83.34;101354.00;87780;1283;79626;-62
2021/12/23 00:45:24;;;;;;;61.00;29.80;;;;;;;-3.51;83.33;101350.47;87782;1283;83359;-60
2021/12/23 00:47:33;;;;;;;60.90;29.90;;;;;;;-3.48;83.16;101349.98;87870;1282;99529;-62
2021/12/23 00:49:46;;;;;;;54.30;28.30;;;;;;;-3.49;83.07;101347.38;87805;1283;89577;-62
2021/12/23 00:51:57;;;;;;;58.70;29.80;;;;;;;-3.50;83.26;101345.98;87777;1271;93084;-62
2021/12/23 00:54:07;;;;;;;59.30;30.00;;;;;;;-3.48;82.90;101343.44;87787;1283;79417;-61
2021/12/23 00:56:17;;;;;;;61.90;31.00;;;;;;;-3.53;82.85;101342.45;87794;1285;83090;-60
2021/12/23 00:58:30;;;;;;;56.20;28.30;;;;;;;-3.55;82.92;101342.23;87770;1283;99089;-61
2021/12/23 01:00:40;;;;;;;57.80;29.50;;;;;;;-3.57;82.58;101338.59;87789;1287;89598;-61
2021/12/23 01:02:49;;;;;;;60.70;29.60;;;;;;;-3.62;82.69;101340.05;87786;1285;95748;-61
2021/12/23 01:04:59;;;;;;;55.20;29.50;;;;;;;-3.63;82.80;101335.91;87792;1283;81790;-62
2021/12/23 01:07:10;;;;;;;67.00;30.90;;;;;;;-3.64;82.95;101334.89;87790;1285;81635;-62
2021/12/23 01:09:19;;;;;;;55.40;29.00;;;;;;;-3.64;82.75;101329.11;87842;1285;98699;-62
2021/12/23 01:11:28;;;;;;;65.20;31.10;;;;;;;-3.62;83.01;101329.02;87841;1281;87196;-60
2021/12/23 01:13:38;;;;;;;59.70;29.20;;;;;;;-3.59;82.81;101327.60;87873;1279;93017;-60
2021/12/23 01:16:01;;;;;;;55.70;28.70;;;;;;;-3.54;82.97;101325.61;87767;1284;77106;-60
2021/12/23 01:18:19;;;;;;;55.80;29.50;;;;;;;-3.50;82.85;101319.77;87866;1283;83116;-62
2021/12/23 01:20:32;;;;;;;56.80;26.60;;;;;;;-3.52;82.88;101314.77;87803;1285;99228;-60
2021/12/23 01:22:44;;;;;;;52.20;27.10;;;;;;;-3.51;82.84;101312.96;87820;1284;89240;-61
2021/12/23 01:24:55;;;;;;;54.50;29.50;;;;;;;-3.51;82.85;101313.30;87824;1284;95876;-60
2021/12/23 01:27:08;;;;;;;52.00;26.90;;;;;;;-3.53;82.83;101312.20;87764;1285;77854;-62
2021/12/23 01:29:18;;;;;;;55.30;28.00;;;;;;;-3.55;82.95;101314.78;87882;1285;82102;-61
2021/12/23 01:31:32;;;;;;;56.10;28.00;;;;;;;-3.57;82.74;101312.20;87825;1284;99014;-60
2021/12/23 01:33:42;;;;;;;45.60;24.90;;;;;;;-3.59;82.53;101316.52;87820;1285;87532;-63
2021/12/23 01:35:52;;;;;;;49.20;26.20;;;;;;;-3.62;82.67;101315.10;87821;1285;95213;-61
2021/12/23 01:38:01;;;;;;;53.00;26.20;;;;;;;-3.64;82.86;101313.23;87666;1284;80784;-64
2021/12/23 01:40:15;;;;;;;49.80;26.30;;;;;;;-3.65;82.82;101307.86;87815;1284;80248;-65
2021/12/23 01:42:25;;;;;;;52.60;27.40;;;;;;;-3.63;83.01;101305.48;87761;1284;98126;-62
2021/12/23 01:44:38;;;;;;;52.50;26.00;;;;;;;-3.58;82.90;101305.73;87862;1284;87791;-65
2021/12/23 01:46:47;;;;;;;52.40;25.10;;;;;;;-3.51;82.93;101304.52;87834;1285;94954;-64
2021/12/23 01:48:57;;;;;;;51.40;24.70;;;;;;;-3.46;82.87;101298.27;87831;1285;76432;-62
2021/12/23 01:51:10;;;;;;;52.40;25.70;;;;;;;-3.44;82.78;101299.02;87896;1283;83124;-63
2021/12/23 01:53:20;;;;;;;46.70;25.20;;;;;;;-3.40;82.86;101294.95;87872;1283;98602;-63
2021/12/23 01:55:35;;;;;;;48.60;24.70;;;;;;;-3.40;82.58;101284.39;87865;1282;88732;-63
2021/12/23 01:57:46;;;;;;;47.80;24.40;;;;;;;-3.40;82.45;101279.29;87855;1281;95345;-64
2021/12/23 01:59:56;;;;;;;45.20;23.90;;;;;;;-3.46;82.28;101278.34;87878;1282;78977;-63
2021/12/23 02:02:06;;;;;;;41.70;22.90;;;;;;;-3.50;82.51;101272.09;87804;1283;83624;-64
2021/12/23 02:04:16;;;;;;;46.00;24.20;;;;;;;-3.56;82.35;101268.85;87856;1281;98588;-64
2021/12/23 02:06:25;;;;;;;46.70;23.60;;;;;;;-3.60;82.36;101267.31;87820;1285;87560;-64
2021/12/23 02:08:40;;;;;;;44.00;23.60;;;;;;;-3.66;82.21;101261.61;87854;1282;93204;-64
2021/12/23 02:10:50;;;;;;;49.00;24.20;;;;;;;-3.70;82.42;101257.58;87790;1287;79193;-65
2021/12/23 02:13:04;;;;;;;50.10;26.00;;;;;;;-3.71;82.49;101257.33;87801;1276;81688;-66
2021/12/23 02:15:16;;;;;;;50.70;23.90;;;;;;;-3.72;82.34;101246.09;87664;1285;99101;-66
2021/12/23 02:17:26;;;;;;;49.00;24.00;;;;;;;-3.72;82.46;101249.76;87808;1288;88870;-66
2021/12/23 02:19:36;;;;;;;46.70;24.30;;;;;;;-3.70;82.42;101244.04;87560;1287;94988;-66
2021/12/23 02:21:49;;;;;;;44.60;22.50;;;;;;;-3.63;82.34;101244.23;87783;1284;79198;-65
2021/12/23 02:23:59;;;;;;;44.00;22.30;;;;;;;-3.57;82.35;101235.80;87724;1285;81486;-65
2021/12/23 02:26:11;;;;;;;45.30;23.20;;;;;;;-3.52;82.30;101236.95;87704;1284;98006;-65
2021/12/23 02:28:23;;;;;;;39.90;21.50;;;;;;;-3.47;82.30;101223.84;87697;1284;88287;-64
2021/12/23 02:30:35;;;;;;;46.60;23.50;;;;;;;-3.47;82.12;101219.96;87727;1284;95038;-64
2021/12/23 02:32:49;;;;;;;42.30;20.80;;;;;;;-3.50;82.02;101213.95;87691;1284;78805;-64
2021/12/23 02:35:00;;;;;;;46.00;22.40;;;;;;;-3.52;81.85;101213.72;87779;1283;83068;-64
2021/12/23 02:37:09;;;;;;;44.70;22.70;;;;;;;-3.59;81.78;101212.17;87713;1284;97372;-62
2021/12/23 02:39:23;;;;;;;48.30;22.20;;;;;;;-3.67;81.76;101209.23;87714;1276;87697;-64
2021/12/23 02:41:32;;;;;;;46.90;22.20;;;;;;;-3.75;81.82;101207.36;87696;1284;93153;-63
2021/12/23 02:43:42;;;;;;;42.30;20.60;;;;;;;-3.79;81.83;101206.70;87662;1285;81012;-62
2021/12/23 02:45:58;;;;;;;47.30;23.10;;;;;;;-3.84;81.68;101204.83;87702;1282;81771;-63
2021/12/23 02:48:13;;;;;;;45.70;22.10;;;;;;;-3.87;81.87;101204.47;87775;1283;99212;-63
2021/12/23 02:50:26;;;;;;;51.80;23.80;;;;;;;-3.87;81.80;101203.94;87708;1284;89438;-65
2021/12/23 02:52:37;;;;;;;44.00;23.20;;;;;;;-3.85;81.96;101198.73;87715;1283;94627;-64
2021/12/23 02:54:57;;;;;;;40.00;20.80;;;;;;;-3.81;81.93;101198.02;87722;1284;79454;-67
2021/12/23 02:57:11;;;;;;;42.60;21.20;;;;;;;-3.80;82.10;101198.98;87671;1285;81972;-67
2021/12/23 02:59:18;;;;;;;;;;;;;;;-3.87;81.77;101190.73;87801;1288;99130;-66
2021/12/23 03:01:31;;;;;;;38.60;20.00;;;;;;;-3.90;81.82;101189.50;87739;1283;87156;-65
2021/12/23 03:03:43;;;;;;;39.20;19.60;;;;;;;-3.92;81.69;101185.54;87774;1284;94630;-65
2021/12/23 03:05:56;;;;;;;36.60;20.20;;;;;;;-3.95;81.94;101183.09;87818;1284;78851;-64
2021/12/23 03:08:06;;;;;;;42.80;20.70;;;;;;;-3.98;81.77;101183.23;87700;1288;82408;-65
2021/12/23 03:10:22;;;;;;;43.60;21.80;;;;;;;-4.01;81.64;101181.99;87673;1284;97984;-61
2021/12/23 03:12:35;;;;;;;49.90;22.90;;;;;;;-4.05;81.44;101180.92;87758;1284;88889;-61
2021/12/23 03:14:44;;;;;;;39.80;20.10;;;;;;;-4.10;81.50;101183.13;87712;1284;94602;-62
2021/12/23 03:16:57;;;;;;;38.30;19.70;;;;;;;-4.16;81.53;101181.17;87695;1284;78814;-62
2021/12/23 03:19:06;;;;;;;44.00;21.60;;;;;;;-4.24;81.55;101176.61;87531;1293;80102;-63
2021/12/23 03:21:16;;;;;;;47.30;21.10;;;;;;;-4.30;81.46;101173.79;87534;1285;99337;-61
2021/12/23 03:23:26;;;;;;;43.50;20.70;;;;;;;-4.32;81.39;101174.57;87284;1287;385474;-61
2021/12/23 03:25:35;;;;;;;44.70;21.80;;;;;;;-4.33;81.68;101168.46;87462;1286;93189;-62
2021/12/23 03:27:46;;;;;;;43.10;19.90;;;;;;;-4.30;81.70;101165.52;87699;1284;77989;-60
2021/12/23 03:29:56;;;;;;;44.60;21.80;;;;;;;-4.27;81.45;101165.35;87735;1284;82124;-67
2021/12/23 03:32:07;;;;;;;39.50;20.00;;;;;;;-4.22;81.71;101161.96;87511;1286;98274;-63
2021/12/23 03:34:17;;;;;;;37.80;20.40;;;;;;;-4.20;81.54;101158.15;87708;1282;87025;-63
2021/12/23 03:36:30;;;;;;;42.40;21.20;;;;;;;-4.20;81.75;101156.88;87724;1285;93627;-62
2021/12/23 03:38:39;;;;;;;39.00;20.50;;;;;;;-4.23;81.50;101153.89;87534;1286;80196;-64
2021/12/23 03:40:50;;;;;;;45.30;20.60;;;;;;;-4.27;81.52;101152.54;87689;1284;82063;-63
2021/12/23 03:42:59;;;;;;;38.60;19.70;;;;;;;-4.31;81.53;101148.30;87720;1284;99217;-63
2021/12/23 03:45:11;;;;;;;43.30;22.60;;;;;;;-4.33;81.51;101145.26;87717;1284;88301;-63
2021/12/23 03:47:21;;;;;;;42.40;21.50;;;;;;;-4.36;81.55;101140.33;87698;1284;94431;-63
2021/12/23 03:49:33;;;;;;;42.60;20.70;;;;;;;-4.40;81.52;101136.15;87702;1280;78864;-62
2021/12/23 03:51:42;;;;;;;45.30;21.50;;;;;;;-4.44;81.59;101137.02;87561;1285;80248;-63
2021/12/23 03:53:52;;;;;;;47.80;23.20;;;;;;;-4.45;81.57;101134.96;87700;1284;98967;-63
2021/12/23 03:56:02;;;;;;;44.30;22.80;;;;;;;-4.47;81.68;101132.95;87719;1284;86981;-63
2021/12/23 03:58:12;;;;;;;52.70;25.30;;;;;;;-4.48;81.65;101128.61;87704;1287;93688;-63
2021/12/23 04:00:23;;;;;;;46.80;24.40;;;;;;;-4.44;81.64;101126.84;87579;1282;78499;-68
2021/12/23 04:02:32;;;;;;;44.20;22.90;;;;;;;-4.38;81.71;101119.52;87571;1282;80574;-62
2021/12/23 04:04:46;;;;;;;47.50;24.00;;;;;;;-4.30;81.61;101113.30;87704;1288;97218;-63
2021/12/23 04:06:56;;;;;;;44.10;23.00;;;;;;;-4.24;81.63;101107.35;87718;1288;87011;-63
2021/12/23 04:09:05;;;;;;;45.00;23.20;;;;;;;-4.16;81.80;101105.38;87674;1284;94361;-63
2021/12/23 04:11:15;;;;;;;47.50;22.50;;;;;;;-4.15;81.74;101098.13;87720;1284;77874;-62
2021/12/23 04:13:25;;;;;;;42.10;22.00;;;;;;;-4.14;81.90;101093.99;87699;1288;82361;-62
2021/12/23 04:15:35;;;;;;;44.90;23.20;;;;;;;-4.16;81.73;101094.64;87737;1284;96183;-62
2021/12/23 04:17:45;;;;;;;43.20;23.60;;;;;;;-4.14;81.66;101091.55;87808;1284;87413;-65
2021/12/23 04:20:03;;;;;;;48.30;25.40;;;;;;;-4.13;81.53;101085.73;87888;1277;94305;-62
2021/12/23 04:22:12;;;;;;;43.50;22.10;;;;;;;-4.16;81.52;101085.84;87781;1279;79142;-63
2021/12/23 04:24:22;;;;;;;42.20;22.90;;;;;;;-4.19;81.70;101081.94;87769;1283;79692;-62
2021/12/23 04:26:31;;;;;;;46.00;23.80;;;;;;;-4.20;81.45;101075.68;87866;1279;97183;-62
2021/12/23 04:28:46;;;;;;;49.80;25.10;;;;;;;-4.25;81.69;101073.48;87875;1279;88864;-64
2021/12/23 04:30:57;;;;;;;53.70;25.80;;;;;;;-4.28;81.51;101069.23;87785;1285;95198;-62
2021/12/23 04:33:06;;;;;;;49.90;25.60;;;;;;;-4.28;81.64;101062.39;87745;1284;79131;-64
2021/12/23 04:35:16;;;;;;;48.20;23.90;;;;;;;-4.30;81.52;101055.44;87822;1285;83293;-65
2021/12/23 04:37:25;;;;;;;46.10;24.60;;;;;;;-4.28;81.63;101053.95;87866;1282;98436;-65
2021/12/23 04:39:34;;;;;;;47.30;23.90;;;;;;;-4.24;81.57;101049.16;87874;1284;87035;-67
2021/12/23 04:41:46;;;;;;;51.80;25.80;;;;;;;-4.25;81.50;101051.86;87800;1283;93276;-64
2021/12/23 04:43:56;;;;;;;46.80;24.00;;;;;;;-4.27;81.79;101044.73;87800;1288;77844;-66
2021/12/23 04:46:07;;;;;;;47.20;24.50;;;;;;;-4.29;81.52;101042.40;87807;1285;82263;-65
2021/12/23 04:48:19;;;;;;;45.00;22.70;;;;;;;-4.31;81.40;101036.16;87815;1284;98906;-65
2021/12/23 04:50:32;;;;;;;47.20;24.40;;;;;;;-4.37;81.50;101037.88;87772;1283;88060;-65
2021/12/23 04:52:42;;;;;;;47.60;24.30;;;;;;;-4.42;81.46;101033.40;87774;1285;96694;-65
2021/12/23 04:54:51;;;;;;;47.10;24.30;;;;;;;-4.50;81.45;101026.45;87770;1288;77904;-62
2021/12/23 04:57:01;;;;;;;47.00;25.40;;;;;;;-4.56;81.43;101020.42;87535;1288;81848;-63
2021/12/23 04:59:15;;;;;;;46.80;24.70;;;;;;;-4.61;81.34;101013.67;87764;1289;96518;-62
2021/12/23 05:01:29;;;;;;;52.20;25.10;;;;;;;-4.63;81.30;101009.71;87881;1282;90003;-63
2021/12/23 05:03:42;;;;;;;55.70;26.10;;;;;;;-4.62;81.48;101009.66;87847;1282;95264;-64
2021/12/23 05:05:53;;;;;;;57.80;28.20;;;;;;;-4.61;81.53;101007.49;87829;1285;81215;-63
2021/12/23 05:08:03;;;;;;;51.40;27.20;;;;;;;-4.56;81.49;101003.55;87883;1281;82755;-63
2021/12/23 05:10:16;;;;;;;49.90;26.40;;;;;;;-4.49;81.50;100997.02;87805;1277;98163;-65
2021/12/23 05:12:27;;;;;;;45.00;23.80;;;;;;;-4.41;81.57;100997.48;87744;1283;87859;-64
2021/12/23 05:14:37;;;;;;;45.10;24.10;;;;;;;-4.32;81.66;100998.23;87792;1284;94425;-64
2021/12/23 05:16:50;;;;;;;43.70;22.70;;;;;;;-4.24;81.62;100995.34;87558;1287;77399;-65
2021/12/23 05:18:59;;;;;;;;;;;;;;;-4.16;81.58;100994.08;87560;1288;82680;-64
2021/12/23 05:21:08;;;;;;;45.40;22.70;;;;;;;-4.13;81.49;100989.66;87683;1288;97561;-63
2021/12/23 05:23:18;;;;;;;49.50;24.10;;;;;;;-4.11;81.37;100988.87;87709;1284;86600;-63
2021/12/23 05:25:30;;;;;;;47.70;25.50;;;;;;;-4.09;81.15;100989.50;87695;1281;95309;-65
2021/12/23 05:27:41;;;;;;;48.00;26.10;;;;;;;-4.11;81.39;100987.83;87694;1284;78442;-64
2021/12/23 05:29:54;;;;;;;47.20;24.60;;;;;;;-4.13;81.40;100982.48;87570;1287;83491;-63
2021/12/23 05:32:06;;;;;;;43.40;23.40;;;;;;;-4.18;81.16;100982.02;87718;1284;96730;-62
2021/12/23 05:34:15;;;;;;;46.40;24.90;;;;;;;-4.22;81.08;100979.45;87553;1288;87730;-63
2021/12/23 05:36:26;;;;;;;46.90;25.00;;;;;;;-4.25;80.91;100975.53;87688;1284;93069;-64
2021/12/23 05:38:36;;;;;;;47.70;24.60;;;;;;;-4.29;80.90;100974.33;87691;1284;79746;-64
2021/12/23 05:40:45;;;;;;;47.50;24.90;;;;;;;-4.32;80.95;100969.73;87548;1284;82111;-64
2021/12/23 05:43:00;;;;;;;49.70;25.80;;;;;;;-4.30;81.12;100967.34;87700;1282;98617;-63
2021/12/23 05:45:11;;;;;;;49.60;24.40;;;;;;;-4.23;81.05;100966.29;87506;1286;87253;-64
2021/12/23 05:47:24;;;;;;;47.00;23.50;;;;;;;-4.17;81.06;100966.88;87494;1287;93021;-64
2021/12/23 05:49:34;;;;;;;40.30;22.70;;;;;;;-4.10;81.16;100964.54;87507;1288;76991;-63
2021/12/23 05:51:47;;;;;;;43.00;22.90;;;;;;;-4.04;81.17;100967.03;87668;1288;81819;-63
2021/12/23 05:53:56;;;;;;;41.50;22.50;;;;;;;-3.99;80.97;100963.45;87668;1288;97944;-65
2021/12/23 05:56:11;;;;;;;42.80;23.00;;;;;;;-3.97;80.99;100960.69;87569;1286;88315;-62
2021/12/23 05:58:20;;;;;;;45.80;23.80;;;;;;;-3.98;80.93;100957.71;87706;1284;95266;-62
2021/12/23 06:00:33;;;;;;;45.20;23.30;;;;;;;-3.98;80.88;100960.54;87674;1284;81413;-64
2021/12/23 06:02:47;;;;;;;43.40;23.20;;;;;;;-4.00;80.92;100956.77;87529;1288;81266;-62
2021/12/23 06:04:57;;;;;;;45.70;23.70;;;;;;;-4.02;80.85;100956.39;87707;1279;96551;-60
2021/12/23 06:07:09;;;;;;;42.70;22.10;;;;;;;-4.06;80.88;100956.77;87699;1282;86630;-61
2021/12/23 06:09:20;;;;;;;45.70;23.30;;;;;;;-4.12;80.87;100950.40;87517;1284;94929;-61
2021/12/23 06:11:30;;;;;;;51.50;25.00;;;;;;;-4.12;80.75;100950.41;87547;1285;78599;-62
2021/12/23 06:13:40;;;;;;;44.20;23.20;;;;;;;-4.15;80.59;100950.21;87553;1287;82808;-61
2021/12/23 06:15:50;;;;;;;44.70;22.50;;;;;;;-4.17;80.64;100949.80;87638;1288;99033;-61
2021/12/23 06:17:59;;;;;;;48.70;25.00;;;;;;;-4.21;80.72;100941.56;87864;1284;86358;-61
2021/12/23 06:20:12;;;;;;;48.80;25.30;;;;;;;-4.20;80.92;100941.00;87876;1284;94639;-62
2021/12/23 06:22:22;;;;;;;52.60;26.30;;;;;;;-4.16;80.79;100936.90;87838;1286;80038;-61
2021/12/23 06:24:32;;;;;;;51.50;26.50;;;;;;;-4.11;80.86;100937.34;87859;1283;80003;-60
2021/12/23 06:26:42;;;;;;;48.10;24.50;;;;;;;-4.05;80.65;100935.77;87839;1285;99372;-62
2021/12/23 06:28:55;;;;;;;44.40;24.10;;;;;;;-3.94;80.96;100933.25;87834;1286;86736;-62
2021/12/23 06:31:04;;;;;;;36.10;19.60;;;;;;;-3.89;80.92;100930.88;87841;1285;96165;-60
2021/12/23 06:33:14;;;;;;;44.10;22.80;;;;;;;-3.87;80.93;100926.67;87848;1287;78180;-64
2021/12/23 06:35:26;;;;;;;42.20;23.70;;;;;;;-3.84;80.72;100925.77;87921;1285;82577;-62
2021/12/23 06:37:38;;;;;;;50.50;24.40;;;;;;;-3.82;80.45;100924.63;87923;1282;98440;-60
2021/12/23 06:39:48;;;;;;;43.70;23.10;;;;;;;-3.81;80.45;100924.06;87944;1285;88941;-61
2021/12/23 06:41:57;;;;;;;46.50;24.80;;;;;;;-3.85;80.57;100923.22;87835;1280;92915;-61
2021/12/23 06:44:10;;;;;;;45.10;23.80;;;;;;;-3.88;80.31;100926.35;87835;1287;80021;-65
2021/12/23 06:46:21;;;;;;;46.00;24.70;;;;;;;-3.92;80.25;100926.40;87802;1284;82745;-61
2021/12/23 06:48:31;;;;;;;47.20;25.30;;;;;;;-3.94;80.51;100924.27;87871;1287;97717;-61
2021/12/23 06:50:40;;;;;;;44.90;25.20;;;;;;;-3.98;80.35;100924.52;87614;1284;89559;-61
2021/12/23 06:52:55;;;;;;;47.90;25.70;;;;;;;-4.02;80.34;100924.16;87947;1282;94480;-61
2021/12/23 06:55:06;;;;;;;46.40;26.20;;;;;;;-4.06;80.35;100924.07;87869;1276;77963;-61
2021/12/23 06:57:15;;;;;;;45.10;23.60;;;;;;;-4.09;80.34;100923.88;87743;1287;79822;-63
2021/12/23 06:59:26;;;;;;;49.40;25.90;;;;;;;-4.10;80.27;100922.71;87961;1281;98681;-63
2021/12/23 07:01:36;;;;;;;47.20;26.30;;;;;;;-4.09;80.50;100920.73;87936;1285;88118;-62
2021/12/23 07:04:04;;;;;;;82.20;37.80;;;;;;;-4.07;80.42;100917.94;87919;1282;95533;-60
2021/12/23 07:06:18;;;;;;;70.90;33.50;;;;;;;-3.97;80.58;100915.10;87886;1281;79190;-62
2021/12/23 07:08:30;;;;;;;49.50;26.80;;;;;;;-3.88;80.48;100914.41;87940;1281;82215;-62
2021/12/23 07:10:40;;;;;;;45.90;23.50;;;;;;;-3.82;80.56;100913.35;87921;1281;98671;-61
2021/12/23 07:12:52;;;;;;;47.20;24.90;;;;;;;-3.77;80.56;100909.88;87882;1285;88594;-63
2021/12/23 07:15:01;;;;;;;47.80;23.20;;;;;;;-3.74;80.38;100905.00;87863;1286;95611;-61
2021/12/23 07:17:11;;;;;;;47.90;24.80;;;;;;;-3.71;80.12;100900.60;87855;1285;79574;-61
2021/12/23 07:19:23;;;;;;;49.60;23.50;;;;;;;-3.72;80.29;100894.69;87861;1285;80411;-61
2021/12/23 07:21:35;;;;;;;43.50;23.40;;;;;;;-3.71;80.16;100899.01;87886;1287;98873;-62
2021/12/23 07:23:45;;;;;;;47.20;23.60;;;;;;;-3.70;79.81;100898.23;87932;1282;87943;-61
2021/12/23 07:25:57;;;;;;;48.40;24.70;;;;;;;-3.72;79.78;100896.06;87868;1286;95604;-62
2021/12/23 07:28:08;;;;;;;44.50;23.60;;;;;;;-3.73;80.12;100894.02;87878;1282;80399;-60
2021/12/23 07:30:24;;;;;;;45.10;23.80;;;;;;;-3.77;79.65;100888.61;87913;1287;83382;-60
2021/12/23 07:32:34;;;;;;;45.70;22.80;;;;;;;-3.78;79.99;100885.88;87909;1281;95909;-61
2021/12/23 07:34:43;;;;;;;42.10;22.60;;;;;;;-3.82;79.62;100886.62;87867;1286;88890;-61
2021/12/23 07:36:53;;;;;;;51.10;26.00;;;;;;;-3.88;79.89;100880.61;87884;1283;96156;-60
2021/12/23 07:39:07;;;;;;;47.80;25.60;;;;;;;-3.86;79.67;100881.40;87844;1286;81693;-60
2021/12/23 07:41:16;;;;;;;48.30;24.90;;;;;;;-3.85;79.76;100872.39;87880;1282;82515;-62
2021/12/23 07:43:44;;;;;;;51.20;26.20;;;;;;;-3.81;79.81;100871.09;87846;1282;99183;-60
2021/12/23 07:45:56;;;;;;;47.10;24.50;;;;;;;-3.76;79.53;100874.48;87852;1283;86951;-60
2021/12/23 07:48:09;;;;;;;51.60;24.80;;;;;;;-3.67;79.77;100871.70;87842;1284;94273;-62
2021/12/23 07:50:19;;;;;;;43.70;23.20;;;;;;;-3.58;79.60;100866.61;87850;1288;77510;-61
2021/12/23 07:52:30;;;;;;;47.30;23.50;;;;;;;-3.52;79.73;100859.73;87936;1282;80317;-61
2021/12/23 07:54:42;;;;;;;47.70;24.60;;;;;;;-3.46;79.44;100862.58;87863;1281;98765;-62
2021/12/23 07:56:52;;;;;;;45.80;23.90;;;;;;;-3.47;79.33;100860.30;87845;1286;88519;-61
2021/12/23 07:59:05;;;;;;;47.40;23.20;;;;;;;-3.40;79.42;100853.90;87938;1281;93872;-60
2021/12/23 08:01:17;;;;;;;43.60;24.50;;;;;;;-3.38;79.23;100856.25;87898;1282;77305;-63
2021/12/23 08:03:29;;;;;;;54.50;27.10;;;;;;;-3.36;78.94;100852.95;87867;1283;81190;-62
2021/12/23 08:05:43;;;;;;;49.80;23.80;;;;;;;-3.33;78.92;100849.25;87669;1284;98107;-60
2021/12/23 08:07:54;;;;;;;46.10;24.60;;;;;;;-3.31;79.23;100849.52;87920;1282;87648;-59
2021/12/23 08:10:04;;;;;;;49.50;25.50;;;;;;;-3.31;78.83;100846.66;87890;1284;95958;-71
2021/12/23 08:12:16;;;;;;;50.80;25.00;;;;;;;-3.30;79.12;100841.66;87893;1282;80817;-62
2021/12/23 08:14:27;;;;;;;50.40;26.30;;;;;;;-3.27;79.07;100834.10;87941;1285;82230;-62
2021/12/23 08:16:36;;;;;;;47.80;24.70;;;;;;;-3.25;78.98;100833.12;87861;1284;98806;-61
2021/12/23 08:18:46;;;;;;;54.50;27.00;;;;;;;-3.24;78.86;100826.20;87866;1285;89048;-62
2021/12/23 08:20:59;;;;;;;54.30;27.40;;;;;;;-3.28;78.77;100825.19;87856;1279;95133;-62
2021/12/23 08:23:09;;;;;;;50.60;27.00;;;;;;;-3.22;79.03;100823.96;87898;1286;81504;-63
2021/12/23 08:25:23;;;;;;;49.60;25.70;;;;;;;-3.17;78.74;100822.23;87916;1286;81855;-63
2021/12/23 08:27:36;;;;;;;47.10;25.40;;;;;;;-3.15;78.92;100821.39;87955;1284;97700;-60
2021/12/23 08:29:45;;;;;;;50.10;26.40;;;;;;;-3.07;78.74;100816.30;87888;1284;88617;-62
2021/12/23 08:31:55;;;;;;;48.00;25.80;;;;;;;-2.98;78.63;100814.88;87917;1285;95643;-62
2021/12/23 08:34:07;;;;;;;46.50;25.80;;;;;;;-2.86;78.74;100810.33;87915;1282;79590;-66
2021/12/23 08:36:17;;;;;;;51.50;27.30;;;;;;;-2.74;78.51;100807.92;87969;1280;83458;-67
2021/12/23 08:38:31;;;;;;;52.90;26.90;;;;;;;-2.68;78.60;100805.79;87860;1284;99518;-63
2021/12/23 08:40:40;;;;;;;51.00;27.00;;;;;;;-2.60;78.41;100806.38;87894;1286;88220;-63
2021/12/23 08:42:56;;;;;;;47.20;25.10;;;;;;;-2.57;78.41;100797.52;87888;1283;95568;-62
2021/12/23 08:45:08;;;;;;;50.90;28.60;;;;;;;-2.55;77.89;100797.59;87912;1284;77198;-62
2021/12/23 08:47:19;;;;;;;50.90;28.40;;;;;;;-2.54;77.92;100793.08;87881;1286;81870;-59
2021/12/23 08:49:30;;;;;;;49.10;27.00;;;;;;;-2.50;78.00;100792.28;87903;1280;101447;-62
2021/12/23 08:51:43;;;;;;;52.90;27.00;;;;;;;-2.52;78.18;100788.02;87976;1281;88019;-63
2021/12/23 08:53:53;;;;;;;52.70;27.10;;;;;;;-2.50;77.77;100782.46;87875;1286;93241;-63
2021/12/23 08:56:05;;;;;;;49.50;27.30;;;;;;;-2.50;77.85;100781.38;87908;1279;78862;-61
2021/12/23 08:58:15;;;;;;;54.40;27.00;;;;;;;-2.49;77.66;100776.73;87876;1287;81191;-62
2021/12/23 09:00:26;;;;;;;48.70;27.70;;;;;;;-2.48;77.43;100772.45;87931;1285;97927;-68
2021/12/23 09:02:39;;;;;;;51.70;27.50;;;;;;;-2.51;77.16;100770.66;87896;1286;88269;-64
2021/12/23 09:04:49;;;;;;;52.80;27.20;;;;;;;-2.50;77.45;100771.67;87899;1287;93693;-61
2021/12/23 09:06:58;;;;;;;55.20;28.60;;;;;;;-2.52;77.50;100767.59;87913;1281;76990;-62
2021/12/23 09:09:08;;;;;;;53.30;28.00;;;;;;;-2.49;77.38;100769.17;87873;1287;81402;-62
2021/12/23 09:11:18;;;;;;;54.70;28.40;;;;;;;-2.46;77.43;100766.12;87900;1285;98735;-63
2021/12/23 09:13:28;;;;;;;49.80;28.10;;;;;;;-2.50;77.17;100766.05;87950;1285;87386;-62
2021/12/23 09:15:38;;;;;;;47.50;27.30;;;;;;;-2.48;77.38;100761.67;87892;1280;94297;-61
2021/12/23 09:17:48;;;;;;;46.10;26.30;;;;;;;-2.41;77.18;100762.31;87915;1284;80110;-62
2021/12/23 09:19:57;;;;;;;55.20;28.50;;;;;;;-2.36;77.38;100756.00;87902;1286;80857;-61
2021/12/23 09:22:10;;;;;;;54.90;27.00;;;;;;;-2.32;77.16;100750.11;87901;1284;98365;-63
2021/12/23 09:24:20;;;;;;;56.00;30.00;;;;;;;-2.31;77.14;100747.19;87897;1285;88163;-64
2021/12/23 09:26:43;;;;;;;52.00;27.80;;;;;;;-2.31;76.96;100736.05;87937;1285;93773;-62
2021/12/23 09:29:00;;;;;;;40.50;21.90;;;;;;;-2.19;77.05;100730.00;87916;1285;78533;-63
2021/12/23 09:33:40;;;;;;;49.30;25.60;;;;;;;-1.98;76.90;100727.89;87889;1285;98113;-62
2021/12/23 09:35:50;;;;;;;48.70;26.90;;;;;;;-1.90;76.57;100725.17;87890;1286;88185;-62
2021/12/23 09:38:01;;;;;;;48.00;27.00;;;;;;;-1.88;76.28;100719.95;87902;1282;93225;-63
2021/12/23 09:40:14;;;;;;;49.10;27.80;;;;;;;-1.79;76.47;100719.32;87908;1286;77699;-61
2021/12/23 09:42:34;;;;;;;46.70;27.00;;;;;;;-1.62;76.51;100714.66;87885;1282;79938;-61
2021/12/23 09:48:30;;;;;;;47.90;27.30;;;;;;;-1.52;76.01;100710.61;87769;1287;89861;-65
2021/12/23 09:53:54;;;;;;;53.30;27.90;;;;;;;-1.48;75.84;100705.56;87729;1285;78621;-66
2021/12/23 09:56:15;;;;;;;52.60;27.90;;;;;;;-1.51;75.87;100700.63;87691;1279;82281;-62
2021/12/23 09:58:26;;;;;;;47.70;26.00;;;;;;;-1.56;75.68;100697.29;87793;1283;97081;-61
2021/12/23 10:00:39;;;;;;;52.00;27.90;;;;;;;-1.54;75.34;100698.05;87751;1288;86787;-64
2021/12/23 10:02:49;;;;;;;45.90;27.30;;;;;;;-1.57;75.36;100697.52;87615;1289;95055;-65
2021/12/23 10:05:03;;;;;;;51.80;26.70;;;;;;;-1.69;74.93;100693.45;87766;1287;79119;-62
2021/12/23 10:07:13;;;;;;;36.70;20.20;;;;;;;-1.71;75.25;100685.83;87777;1288;81151;-61
2021/12/23 10:09:39;;;;;;;49.50;28.10;;;;;;;-1.69;75.45;100685.98;87886;1285;99335;-60